Terminal Aerodrome Forecast
Issued by NWS Jackson, KY

Home | Current Version | Previous Version | Text Only | Print | Product List | Glossary On
Versions: 1 2 3 4 5 6 7 8 9 10 11 12 13
000
FTUS43 KJKL 250500
TAFJKL
TAF
KJKL 250538Z 2506/2606 17003KT P6SM BKN080 BKN250 WS010/19035KT
     FM251000 19005KT 6SM -SHRA BR VCTS BKN035CB OVC100
     FM251300 24009G17KT P6SM FEW010 BKN035 BKN120
     FM251800 26014KT P6SM OVC035
     FM252100 29012KT P6SM FEW250=

USA.gov is the U.S. government's official web portal to all federal, state and local government web resources and services.